Time;durP1;ratioP1;P1;durP2;ratioP2;P2;SDS_P1;SDS_P2;PMS_P1;PMS_P2;Temp;Humidity;BMP_temperature;BMP_pressure;BME280_temperature;BME280_humidity;BME280_pressure;Samples;Min_cycle;Max_cycle;Signal;HPM_P1;HPM_P2
2021/12/20 00:00:46;;;;;;;42.25;7.05;;;;;;;;;;6219064;23;20012;-93
2021/12/20 00:03:14;;;;;;;38.78;5.95;;;;;;;;;;6218419;23;20032;-93
2021/12/20 00:05:52;;;;;;;37.42;5.95;;;;;;;;;;6218578;23;20028;-93
2021/12/20 00:08:20;;;;;;;38.13;6.78;;;;;;;;;;6218740;23;20064;-93
2021/12/20 00:10:47;;;;;;;30.10;5.80;;;;;;;;;;6219080;23;20019;-94
2021/12/20 00:13:46;;;;;;;32.90;5.53;;;;;;;;;;6218505;23;20093;-95
2021/12/20 00:16:15;;;;;;;29.25;5.35;;;;;;;;;;6219047;23;20016;-94
2021/12/20 00:18:43;;;;;;;28.98;5.88;;;;;;;;;;6218931;23;20009;-94
2021/12/20 00:21:42;;;;;;;20.58;5.00;;;;;;;;;;6218778;23;20036;-93
2021/12/20 00:24:09;;;;;;;21.40;5.10;;;;;;;;;;6218651;23;20063;-93
2021/12/20 00:26:37;;;;;;;27.65;5.05;;;;;;;;;;6218678;23;20081;-93
2021/12/20 00:35:47;;;;;;;14.02;3.80;;;;;;;;;;6274440;22;20043;-94
2021/12/20 00:41:04;;;;;;;17.30;5.10;;;;;;;;;;6274330;22;20072;-92
2021/12/20 00:50:41;;;;;;;13.02;3.80;;;;;;;;;;6274791;22;20003;-92
2021/12/20 00:53:09;;;;;;;14.45;3.38;;;;;;;;;;6273820;22;20024;-93
2021/12/20 00:55:37;;;;;;;16.50;3.45;;;;;;;;;;6248623;22;20034;-94
2021/12/20 00:58:05;;;;;;;15.85;3.97;;;;;;;;;;6249371;22;20031;-94
2021/12/20 01:00:34;;;;;;;18.05;4.40;;;;;;;;;;6248826;22;20060;-93
2021/12/20 01:03:05;;;;;;;9.07;3.65;;;;;;;;;;6249466;22;20035;-92
2021/12/20 01:05:34;;;;;;;15.15;3.47;;;;;;;;;;6249392;22;20019;-92
2021/12/20 01:15:00;;;;;;;11.05;4.72;;;;;;;;;;6274900;22;20019;-92
2021/12/20 01:17:31;;;;;;;14.35;4.95;;;;;;;;;;6249739;22;20058;-93
2021/12/20 01:19:59;;;;;;;16.48;4.18;;;;;;;;;;6249084;22;20009;-92
2021/12/20 01:29:10;;;;;;;22.92;6.10;;;;;;;;;;6273362;22;20039;-93
2021/12/20 01:31:37;;;;;;;18.45;4.93;;;;;;;;;;6248957;22;20024;-92
2021/12/20 01:34:04;;;;;;;12.35;4.65;;;;;;;;;;6249216;22;20031;-93
2021/12/20 01:40:00;;;;;;;33.75;6.38;;;;;;;;;;6275047;22;20011;-92
2021/12/20 01:42:31;;;;;;;15.20;5.53;;;;;;;;;;6249360;22;20016;-93
2021/12/20 01:44:59;;;;;;;25.15;6.25;;;;;;;;;;6248882;22;20407;-94
2021/12/20 01:58:14;;;;;;;11.98;6.40;;;;;;;;;;6274944;22;20003;-93
2021/12/20 02:03:30;;;;;;;11.38;6.05;;;;;;;;;;6274460;22;20020;-94
2021/12/20 02:09:39;;;;;;;15.00;6.32;;;;;;;;;;6274877;22;20035;-95
2021/12/20 02:12:07;;;;;;;;;;;;;;;;;;6249491;22;20020;-93
2021/12/20 02:14:34;;;;;;;47.75;7.25;;;;;;;;;;6274035;22;19907;-95
2021/12/20 02:24:10;;;;;;;34.40;6.05;;;;;;;;;;6274849;22;20011;-95
2021/12/20 02:26:39;;;;;;;8.30;4.55;;;;;;;;;;6274030;22;20064;-95
2021/12/20 02:29:09;;;;;;;56.80;5.93;;;;;;;;;;6243527;23;20013;-95
2021/12/20 02:49:01;;;;;;;9.07;4.72;;;;;;;;;;6243632;23;20009;-95
2021/12/20 02:51:42;;;;;;;128.65;9.63;;;;;;;;;;6221518;23;20129;-95
2021/12/20 02:54:23;;;;;;;185.55;12.32;;;;;;;;;;6223208;23;20011;-94
2021/12/20 02:57:04;;;;;;;39.38;7.57;;;;;;;;;;6221526;23;20019;-95
2021/12/20 02:59:34;;;;;;;84.22;8.73;;;;;;;;;;6245046;23;20012;-94
2021/12/20 03:05:37;;;;;;;10.98;5.30;;;;;;;;;;6245852;23;20061;-94
2021/12/20 03:08:05;;;;;;;11.50;4.68;;;;;;;;;;6244974;23;20029;-94
2021/12/20 03:10:45;;;;;;;8.52;5.03;;;;;;;;;;6242834;23;20009;-95
2021/12/20 03:16:36;;;;;;;7.03;4.30;;;;;;;;;;6234999;23;20032;-96
2021/12/20 03:19:05;;;;;;;6.32;4.45;;;;;;;;;;6217475;23;20061;-94
2021/12/20 03:21:33;;;;;;;9.25;4.93;;;;;;;;;;6245188;23;20056;-94
2021/12/20 03:24:04;;;;;;;5.78;3.83;;;;;;;;;;6244956;23;20008;-96
2021/12/20 03:26:44;;;;;;;7.10;4.55;;;;;;;;;;6243669;23;20032;-94
2021/12/20 03:29:25;;;;;;;7.22;4.38;;;;;;;;;;6252247;22;20008;-96
2021/12/20 03:31:57;;;;;;;9.45;4.82;;;;;;;;;;6251346;22;20035;-95
2021/12/20 03:34:38;;;;;;;9.88;4.63;;;;;;;;;;6249307;22;20072;-94
2021/12/20 03:37:18;;;;;;;6.40;4.10;;;;;;;;;;6250243;22;20265;-95
2021/12/20 03:39:59;;;;;;;10.45;4.78;;;;;;;;;;6250135;22;20008;-94
2021/12/20 03:42:43;;;;;;;8.32;4.15;;;;;;;;;;6251758;22;20008;-95
2021/12/20 03:45:26;;;;;;;10.82;4.78;;;;;;;;;;6253109;22;20015;-96
2021/12/20 03:47:54;;;;;;;10.20;4.55;;;;;;;;;;6249477;22;20012;-96
2021/12/20 03:50:34;;;;;;;6.78;4.13;;;;;;;;;;6251118;22;20008;-95
2021/12/20 03:53:02;;;;;;;10.52;4.28;;;;;;;;;;6250187;22;20018;-95
2021/12/20 03:55:45;;;;;;;6.82;4.45;;;;;;;;;;6250833;22;20008;-96
2021/12/20 03:58:21;;;;;;;9.45;4.85;;;;;;;;;;6251484;22;20008;-95
2021/12/20 04:01:09;;;;;;;11.82;5.47;;;;;;;;;;6275082;22;20064;-94
2021/12/20 04:03:49;;;;;;;8.38;4.70;;;;;;;;;;6251249;22;20028;-95
2021/12/20 04:06:16;;;;;;;9.65;5.40;;;;;;;;;;6238773;22;20014;-95
2021/12/20 04:08:57;;;;;;;8.75;5.25;;;;;;;;;;6252399;22;20036;-95
2021/12/20 04:11:26;;;;;;;15.30;4.97;;;;;;;;;;6250220;22;20008;-96
2021/12/20 04:13:56;;;;;;;12.07;5.97;;;;;;;;;;6250239;22;20034;-95
2021/12/20 04:16:36;;;;;;;11.30;6.18;;;;;;;;;;6251798;22;20011;-96
2021/12/20 04:19:04;;;;;;;11.90;5.47;;;;;;;;;;6249867;22;20030;-96
2021/12/20 04:21:45;;;;;;;10.98;5.20;;;;;;;;;;6251369;22;20015;-95
2021/12/20 04:24:25;;;;;;;10.48;6.15;;;;;;;;;;6251488;22;20028;-96
2021/12/20 04:27:08;;;;;;;14.50;5.95;;;;;;;;;;6251101;22;20012;-96
2021/12/20 09:02:57;;;;;;;9.43;3.50;;;;;;;;;;6313482;22;20043;-90
